Time;durP1;ratioP1;P1;durP2;ratioP2;P2;SDS_P1;SDS_P2;PMS_P1;PMS_P2;Temp;Humidity;BMP_temperature;BMP_pressure;BME280_temperature;BME280_humidity;BME280_pressure;Samples;Min_cycle;Max_cycle;Signal;HPM_P1;HPM_P2
2021/06/05 00:01:19;;;;;;;12.38;11.27;;;18.60;99.90;;;;;;5053082;28;20331;-41
2021/06/05 00:03:47;;;;;;;11.38;10.38;;;18.60;99.90;;;;;;5053327;28;20312;-41
2021/06/05 00:06:18;;;;;;;12.55;11.45;;;18.60;99.90;;;;;;5052967;28;20250;-40
2021/06/05 00:08:46;;;;;;;12.85;11.57;;;18.50;99.90;;;;;;5052931;28;20232;-41
2021/06/05 00:11:15;;;;;;;12.85;11.65;;;18.50;99.90;;;;;;5052857;28;20277;-41
2021/06/05 00:13:45;;;;;;;13.20;12.07;;;18.50;99.90;;;;;;5053327;28;20266;-40
2021/06/05 00:16:17;;;;;;;12.88;11.88;;;18.50;99.90;;;;;;5052713;28;20314;-41
2021/06/05 00:18:46;;;;;;;13.48;12.38;;;18.50;99.90;;;;;;5053156;28;20203;-40
2021/06/05 00:21:14;;;;;;;13.60;12.40;;;18.40;99.90;;;;;;5052862;28;20319;-41
2021/06/05 00:23:42;;;;;;;13.40;12.27;;;18.40;99.90;;;;;;5052748;28;20531;-40
2021/06/05 00:26:11;;;;;;;13.00;11.98;;;18.30;99.90;;;;;;5052615;28;20211;-40
2021/06/05 00:28:38;;;;;;;12.90;11.80;;;18.30;99.90;;;;;;5052591;28;20235;-41
2021/06/05 00:31:06;;;;;;;14.07;12.77;;;18.30;99.90;;;;;;5052577;28;20302;-41
2021/06/05 00:33:34;;;;;;;14.13;12.82;;;18.20;99.90;;;;;;5052685;28;20207;-41
2021/06/05 00:36:03;;;;;;;14.70;13.27;;;18.10;99.90;;;;;;5052751;28;20212;-41
2021/06/05 00:38:30;;;;;;;15.35;13.63;;;18.10;99.90;;;;;;5052412;28;20291;-40
2021/06/05 00:41:00;;;;;;;13.77;12.48;;;18.10;99.90;;;;;;5052424;28;20656;-41
2021/06/05 00:43:31;;;;;;;14.65;13.10;;;18.10;99.90;;;;;;5052500;28;20390;-41
2021/06/05 00:45:59;;;;;;;13.50;12.27;;;18.00;99.90;;;;;;5052411;28;20214;-41
2021/06/05 00:48:26;;;;;;;14.13;13.02;;;18.10;99.90;;;;;;5052347;28;20223;-41
2021/06/05 00:50:55;;;;;;;14.52;13.27;;;18.00;99.90;;;;;;5052451;28;20314;-41
2021/06/05 00:53:25;;;;;;;15.00;13.70;;;18.00;99.90;;;;;;5052279;28;20707;-41
2021/06/05 00:55:55;;;;;;;14.38;13.18;;;18.00;99.90;;;;;;5052458;28;20302;-41
2021/06/05 00:58:25;;;;;;;16.38;12.20;;;17.90;99.90;;;;;;5052263;28;20290;-41
2021/06/05 01:00:56;;;;;;;14.27;12.80;;;17.90;99.90;;;;;;5052062;28;20243;-41
2021/06/05 01:03:25;;;;;;;13.55;12.30;;;17.90;99.90;;;;;;5052112;28;20208;-41
2021/06/05 01:05:57;;;;;;;11.93;10.93;;;17.90;99.90;;;;;;5051171;28;20722;-40
2021/06/05 01:08:30;;;;;;;11.75;10.65;;;17.90;99.90;;;;;;5052307;28;20245;-42
2021/06/05 01:11:06;;;;;;;12.32;11.18;;;18.00;99.90;;;;;;5052294;28;20208;-40
2021/06/05 01:13:42;;;;;;;11.80;10.60;;;18.00;99.90;;;;;;5051947;28;20217;-40
2021/06/05 01:16:16;;;;;;;12.10;11.10;;;18.00;99.90;;;;;;5052071;28;20298;-42
2021/06/05 01:18:48;;;;;;;11.07;10.10;;;18.00;99.90;;;;;;5052168;28;20203;-41
2021/06/05 01:21:49;;;;;;;12.95;11.65;;;18.10;99.90;;;;;;5052009;28;20215;-41
2021/06/05 01:24:38;;;;;;;11.55;10.55;;;18.10;99.90;;;;;;5051941;28;20230;-40
2021/06/05 01:27:11;;;;;;;12.27;11.10;;;18.10;99.90;;;;;;5052211;28;20315;-42
2021/06/05 01:29:42;;;;;;;13.18;11.85;;;18.10;99.90;;;;;;5051868;28;20232;-44
2021/06/05 01:32:14;;;;;;;14.50;13.30;;;18.00;99.90;;;;;;5051824;28;20204;-41
2021/06/05 01:34:45;;;;;;;14.52;12.98;;;17.90;99.90;;;;;;5051758;28;20214;-41
2021/06/05 01:37:15;;;;;;;15.02;13.73;;;17.90;99.90;;;;;;5051725;28;20230;-41
2021/06/05 01:39:45;;;;;;;14.23;13.05;;;17.80;99.90;;;;;;5051870;28;20218;-41
2021/06/05 01:42:17;;;;;;;14.05;12.93;;;17.80;99.90;;;;;;5052170;28;20208;-40
2021/06/05 01:44:49;;;;;;;15.20;13.85;;;17.80;99.90;;;;;;5052015;28;20212;-41
2021/06/05 01:47:17;;;;;;;14.90;13.70;;;17.70;99.90;;;;;;5051810;28;20215;-41
2021/06/05 01:49:47;;;;;;;14.57;13.38;;;17.60;99.90;;;;;;5051910;28;20254;-41
2021/06/05 01:52:21;;;;;;;14.52;13.43;;;17.60;99.90;;;;;;5051995;28;20305;-41
2021/06/05 01:54:53;;;;;;;15.57;14.18;;;17.50;99.90;;;;;;5051898;28;20214;-40
2021/06/05 01:57:26;;;;;;;15.70;14.40;;;17.40;99.90;;;;;;5051667;28;20287;-41
2021/06/05 01:59:54;;;;;;;15.40;14.10;;;17.30;99.90;;;;;;5051799;28;20247;-40
2021/06/05 02:02:22;;;;;;;16.95;15.35;;;17.30;99.90;;;;;;5052008;28;20208;-41
2021/06/05 02:04:51;;;;;;;15.77;14.38;;;17.20;99.90;;;;;;5051742;28;20295;-41
2021/06/05 02:07:19;;;;;;;15.77;14.25;;;17.20;99.90;;;;;;5051822;28;20208;-41
2021/06/05 02:09:49;;;;;;;16.13;14.82;;;17.10;99.90;;;;;;5051563;28;20264;-42
2021/06/05 02:12:21;;;;;;;17.15;15.48;;;17.10;99.90;;;;;;5051518;28;20745;-41
2021/06/05 02:14:54;;;;;;;15.82;14.32;;;17.10;99.90;;;;;;5051570;28;20223;-41
2021/06/05 02:17:23;;;;;;;15.15;13.88;;;17.00;99.90;;;;;;5053412;28;20747;-41
2021/06/05 02:19:57;;;;;;;16.52;15.13;;;17.00;99.90;;;;;;5055389;28;20203;-41
2021/06/05 02:22:28;;;;;;;16.42;15.07;;;17.00;99.90;;;;;;5055436;28;20291;-40
2021/06/05 02:24:58;;;;;;;18.38;16.77;;;17.00;99.90;;;;;;5055139;28;20303;-41
2021/06/05 02:27:29;;;;;;;17.38;15.68;;;16.90;99.90;;;;;;5055113;28;20306;-40
2021/06/05 02:29:59;;;;;;;16.75;15.27;;;16.90;99.90;;;;;;5055275;28;20232;-41
2021/06/05 02:32:29;;;;;;;17.75;16.02;;;16.90;99.90;;;;;;5055458;28;20240;-41
2021/06/05 02:34:59;;;;;;;16.75;15.35;;;16.80;99.90;;;;;;5055090;28;20303;-41
2021/06/05 02:37:30;;;;;;;17.40;15.88;;;16.80;99.90;;;;;;5054931;28;20307;-40
2021/06/05 02:40:00;;;;;;;16.70;15.15;;;16.80;99.90;;;;;;5055205;28;20208;-41
2021/06/05 02:42:29;;;;;;;17.00;15.32;;;16.80;99.90;;;;;;5055184;28;20250;-41
2021/06/05 02:45:00;;;;;;;16.58;15.07;;;16.80;99.90;;;;;;5054958;28;20220;-41
2021/06/05 02:47:28;;;;;;;16.70;15.20;;;16.70;99.90;;;;;;5054958;28;20240;-41
2021/06/05 02:50:00;;;;;;;16.90;15.25;;;16.80;99.90;;;;;;5054634;28;20227;-41
2021/06/05 02:52:31;;;;;;;15.63;14.13;;;16.70;99.90;;;;;;5055049;28;20614;-41
2021/06/05 02:55:02;;;;;;;16.70;15.18;;;16.80;99.90;;;;;;5054905;28;20303;-40
2021/06/05 02:57:30;;;;;;;15.48;14.13;;;16.80;99.90;;;;;;5054618;28;20204;-40
2021/06/05 03:00:27;;;;;;;14.77;13.48;;;16.80;99.90;;;;;;5054873;28;20204;-40
2021/06/05 03:02:55;;;;;;;14.23;12.85;;;16.80;99.90;;;;;;5054621;28;20735;-40
2021/06/05 03:05:24;;;;;;;14.93;13.52;;;16.90;99.90;;;;;;5054644;28;20753;-40
2021/06/05 03:07:52;;;;;;;13.82;12.73;;;16.90;99.90;;;;;;5054561;28;20211;-40
2021/06/05 03:10:20;;;;;;;13.95;12.80;;;16.90;99.90;;;;;;5054357;28;20318;-40
2021/06/05 03:12:48;;;;;;;12.55;11.50;;;16.90;99.90;;;;;;5054449;28;20747;-40
2021/06/05 03:15:16;;;;;;;12.75;11.65;;;16.90;99.90;;;;;;5054590;28;20243;-41
2021/06/05 03:17:45;;;;;;;11.63;10.57;;;16.90;99.90;;;;;;5054239;28;20681;-42
2021/06/05 03:20:16;;;;;;;11.30;10.18;;;16.90;99.90;;;;;;5054353;28;20521;-41
2021/06/05 03:22:45;;;;;;;11.75;10.75;;;16.90;99.90;;;;;;5054331;28;20212;-40
2021/06/05 03:25:14;;;;;;;9.85;8.95;;;16.90;99.90;;;;;;5054159;28;20248;-44
2021/06/05 03:27:42;;;;;;;9.82;8.93;;;17.00;99.90;;;;;;5054287;28;20212;-41
2021/06/05 03:30:13;;;;;;;9.90;8.90;;;16.90;99.90;;;;;;5053541;28;20324;-40
2021/06/05 03:32:40;;;;;;;9.88;9.07;;;17.00;99.90;;;;;;5053979;28;20212;-40
2021/06/05 03:35:11;;;;;;;9.50;8.70;;;17.00;99.90;;;;;;5054510;28;20213;-40
2021/06/05 03:37:39;;;;;;;8.95;8.15;;;17.00;99.90;;;;;;5054078;28;20208;-40
2021/06/05 03:40:10;;;;;;;9.55;8.65;;;17.00;99.90;;;;;;5054023;28;20298;-40
2021/06/05 03:42:37;;;;;;;10.75;9.13;;;17.00;99.90;;;;;;5053984;28;20219;-41
2021/06/05 03:45:07;;;;;;;9.98;9.20;;;17.00;99.90;;;;;;5053592;28;20298;-40
2021/06/05 03:47:35;;;;;;;9.13;8.27;;;17.00;99.90;;;;;;5053602;28;20208;-42
2021/06/05 03:50:04;;;;;;;8.50;7.75;;;17.00;99.90;;;;;;5054315;28;20699;-41
2021/06/05 03:52:33;;;;;;;8.15;7.45;;;17.00;99.90;;;;;;5053429;28;20315;-41
2021/06/05 03:55:01;;;;;;;8.75;7.47;;;17.00;99.90;;;;;;5053813;28;20302;-42
2021/06/05 03:57:28;;;;;;;8.23;7.43;;;17.00;99.90;;;;;;5053597;28;20209;-40
2021/06/05 03:59:56;;;;;;;8.07;7.35;;;17.00;99.90;;;;;;5053610;28;20218;-41
2021/06/05 04:02:24;;;;;;;8.05;7.35;;;17.00;99.90;;;;;;5053408;28;20231;-41
2021/06/05 04:04:52;;;;;;;8.55;7.68;;;17.00;99.90;;;;;;5053160;28;20208;-41
2021/06/05 04:07:21;;;;;;;9.10;7.28;;;17.00;99.90;;;;;;5053373;28;20367;-41
2021/06/05 04:09:50;;;;;;;7.65;6.80;;;16.90;99.90;;;;;;5053158;28;20788;-41
2021/06/05 04:12:17;;;;;;;7.25;6.65;;;16.90;99.90;;;;;;5053313;28;20255;-42
2021/06/05 04:14:44;;;;;;;10.32;7.60;;;17.00;99.90;;;;;;5053381;28;20295;-41
2021/06/05 04:17:12;;;;;;;7.97;7.10;;;17.00;99.90;;;;;;5053481;28;20212;-42
2021/06/05 04:19:41;;;;;;;7.57;6.90;;;17.00;99.90;;;;;;5053056;28;20671;-42
2021/06/05 04:22:09;;;;;;;7.70;6.97;;;16.90;99.90;;;;;;5052997;28;20322;-41
2021/06/05 04:24:38;;;;;;;7.18;5.75;;;17.00;99.90;;;;;;5053161;28;20295;-42
2021/06/05 04:27:08;;;;;;;6.65;6.03;;;17.00;99.90;;;;;;5053127;28;20317;-39
2021/06/05 04:29:37;;;;;;;7.05;6.22;;;17.00;99.90;;;;;;5052922;28;20232;-42
2021/06/05 04:32:06;;;;;;;6.70;6.10;;;17.00;99.90;;;;;;5052823;28;20296;-40
2021/06/05 04:34:34;;;;;;;6.57;6.07;;;17.00;99.90;;;;;;5052906;28;20245;-40
2021/06/05 04:37:02;;;;;;;6.13;5.63;;;17.00;99.90;;;;;;5052799;28;20255;-40
2021/06/05 04:39:30;;;;;;;6.35;5.82;;;17.00;99.90;;;;;;5052442;28;20561;-41
2021/06/05 04:41:58;;;;;;;5.93;5.50;;;17.10;99.90;;;;;;5052626;28;20294;-40
2021/06/05 04:44:27;;;;;;;6.35;5.32;;;17.10;99.90;;;;;;5052695;28;20738;-41
2021/06/05 04:46:55;;;;;;;5.53;4.80;;;17.10;99.90;;;;;;5052627;28;20770;-41
2021/06/05 04:49:22;;;;;;;5.43;4.80;;;17.10;99.90;;;;;;5052702;28;20219;-41
2021/06/05 04:51:50;;;;;;;5.13;4.15;;;17.10;99.90;;;;;;5053084;28;20359;-41
2021/06/05 04:54:17;;;;;;;6.22;4.05;;;17.10;99.90;;;;;;5052499;28;20295;-41
2021/06/05 04:56:47;;;;;;;4.95;4.55;;;17.20;99.90;;;;;;5052461;28;20591;-40
2021/06/05 04:59:16;;;;;;;5.20;4.72;;;17.20;99.90;;;;;;5052301;28;20331;-40
2021/06/05 05:01:46;;;;;;;4.95;4.22;;;17.30;99.90;;;;;;5052330;28;20651;-40
2021/06/05 05:04:14;;;;;;;5.05;4.57;;;17.30;99.90;;;;;;5052417;28;20208;-41
2021/06/05 05:06:41;;;;;;;4.07;3.67;;;17.30;99.90;;;;;;5051894;28;20623;-41
2021/06/05 05:09:11;;;;;;;5.40;4.10;;;17.30;99.90;;;;;;5051842;28;20212;-43
2021/06/05 05:11:38;;;;;;;4.30;4.00;;;17.30;99.90;;;;;;5051972;28;20204;-42
2021/06/05 05:14:06;;;;;;;4.00;3.70;;;17.40;99.90;;;;;;5052189;28;20290;-42
2021/06/05 05:16:34;;;;;;;4.70;3.30;;;17.40;99.90;;;;;;5051954;28;20204;-43
2021/06/05 05:19:03;;;;;;;3.22;3.03;;;17.50;99.90;;;;;;5052356;28;20211;-42
2021/06/05 05:21:31;;;;;;;3.72;2.90;;;17.60;99.90;;;;;;5051853;28;20302;-42
2021/06/05 05:23:59;;;;;;;3.20;2.80;;;17.70;99.90;;;;;;5051823;28;20302;-42
2021/06/05 05:26:27;;;;;;;2.75;2.55;;;17.90;99.90;;;;;;5051830;28;20667;-46
2021/06/05 05:28:55;;;;;;;2.63;2.42;;;18.00;99.90;;;;;;5052089;28;20204;-47
2021/06/05 05:31:26;;;;;;;2.45;2.00;;;18.20;99.90;;;;;;5051730;28;20679;-41
2021/06/05 05:33:54;;;;;;;2.25;2.10;;;18.50;99.90;;;;;;5051829;28;20204;-41
2021/06/05 05:36:25;;;;;;;1.92;1.83;;;18.60;99.90;;;;;;5051903;28;20601;-41
2021/06/05 05:38:53;;;;;;;1.80;1.58;;;18.80;99.90;;;;;;5051825;28;20243;-42
2021/06/05 05:41:23;;;;;;;2.30;1.73;;;19.00;99.90;;;;;;5052243;28;20204;-41
2021/06/05 05:43:51;;;;;;;2.03;1.85;;;19.10;99.90;;;;;;5052161;28;20214;-42
2021/06/05 05:46:18;;;;;;;2.22;1.88;;;19.30;99.90;;;;;;5051778;28;20261;-41
2021/06/05 05:48:48;;;;;;;1.80;1.70;;;19.40;99.90;;;;;;5051750;28;20285;-42
2021/06/05 05:51:17;;;;;;;2.30;2.03;;;19.50;99.90;;;;;;5051717;28;20326;-44
2021/06/05 05:53:46;;;;;;;1.77;1.40;;;19.50;99.90;;;;;;5055827;28;20737;-40
2021/06/05 05:56:16;;;;;;;2.80;1.60;;;19.50;99.90;;;;;;5055886;28;20207;-40
2021/06/05 05:58:48;;;;;;;3.40;1.88;;;19.60;99.90;;;;;;5055952;28;20294;-40
2021/06/05 06:01:19;;;;;;;2.03;1.92;;;19.70;99.90;;;;;;5055750;28;20208;-40
2021/06/05 06:03:47;;;;;;;2.20;1.83;;;19.80;99.90;;;;;;5055763;28;20212;-41
2021/06/05 06:06:15;;;;;;;3.40;2.00;;;19.90;99.90;;;;;;5055575;28;20330;-39
2021/06/05 06:08:43;;;;;;;1.70;1.58;;;19.90;99.90;;;;;;5055730;28;20287;-39
2021/06/05 06:11:14;;;;;;;2.00;1.75;;;20.00;99.90;;;;;;5055158;28;20274;-43
2021/06/05 06:13:42;;;;;;;1.48;1.38;;;20.10;99.90;;;;;;5055248;28;20239;-43
2021/06/05 06:16:14;;;;;;;2.05;1.52;;;20.20;99.90;;;;;;5055439;28;20302;-42
2021/06/05 06:18:42;;;;;;;1.45;1.35;;;20.20;99.90;;;;;;5055555;28;20211;-43
2021/06/05 06:21:12;;;;;;;2.88;1.40;;;20.30;99.90;;;;;;5055069;28;20286;-42
2021/06/05 06:23:41;;;;;;;2.53;1.38;;;20.30;99.90;;;;;;5055040;28;20302;-41
2021/06/05 06:26:14;;;;;;;2.25;1.60;;;20.30;99.90;;;;;;5055175;28;20215;-44
2021/06/05 06:28:42;;;;;;;1.90;1.63;;;20.30;99.90;;;;;;5054993;28;20204;-42
2021/06/05 06:31:11;;;;;;;4.05;3.38;;;20.30;99.90;;;;;;5054687;28;20238;-44
2021/06/05 06:33:39;;;;;;;2.65;1.48;;;20.20;99.90;;;;;;5054977;28;20718;-41
2021/06/05 06:36:07;;;;;;;2.60;1.75;;;20.20;99.90;;;;;;5054710;28;20738;-40
2021/06/05 06:38:39;;;;;;;2.67;2.45;;;20.10;99.90;;;;;;5054754;28;20310;-41
2021/06/05 06:41:11;;;;;;;2.10;2.00;;;20.10;99.90;;;;;;5054503;28;20666;-40
2021/06/05 06:43:40;;;;;;;2.13;1.60;;;20.10;99.90;;;;;;5054605;28;20706;-40
2021/06/05 06:46:11;;;;;;;2.17;1.98;;;20.00;99.90;;;;;;5054688;28;20212;-41
2021/06/05 06:48:39;;;;;;;2.38;1.75;;;20.00;99.90;;;;;;5054781;28;20216;-41
2021/06/05 06:51:07;;;;;;;2.50;2.28;;;20.00;99.90;;;;;;5054486;28;20258;-42
2021/06/05 06:53:36;;;;;;;2.80;2.05;;;19.90;99.90;;;;;;5054365;28;20247;-40
2021/06/05 06:56:04;;;;;;;3.40;2.95;;;19.90;99.90;;;;;;5054611;28;20210;-40
2021/06/05 06:58:32;;;;;;;4.57;3.70;;;19.80;99.90;;;;;;5054760;28;20216;-41
2021/06/05 07:01:03;;;;;;;3.40;1.92;;;19.80;99.90;;;;;;5054279;28;20295;-40
2021/06/05 07:03:31;;;;;;;2.00;1.75;;;19.70;99.90;;;;;;5053254;28;20219;-40
2021/06/05 07:05:59;;;;;;;2.53;1.67;;;19.70;99.90;;;;;;5054126;28;20246;-41
2021/06/05 07:08:31;;;;;;;1.55;1.42;;;19.60;99.90;;;;;;5054180;28;20295;-40
2021/06/05 07:11:01;;;;;;;2.63;1.60;;;19.60;99.90;;;;;;5054235;28;20255;-40
2021/06/05 07:13:28;;;;;;;3.22;2.08;;;19.50;99.90;;;;;;5054516;28;20250;-40
2021/06/05 07:15:57;;;;;;;3.40;1.83;;;19.50;99.90;;;;;;5054130;28;20211;-41
2021/06/05 07:18:28;;;;;;;2.10;1.70;;;19.50;99.90;;;;;;5053982;28;20208;-43
2021/06/05 07:20:56;;;;;;;2.75;1.98;;;19.40;99.90;;;;;;5054000;28;20235;-40
2021/06/05 07:23:31;;;;;;;1.63;1.52;;;19.40;99.90;;;;;;5054015;28;20287;-40
2021/06/05 07:26:00;;;;;;;1.85;1.75;;;19.40;99.90;;;;;;5053966;28;20208;-41
2021/06/05 07:28:30;;;;;;;2.08;1.55;;;19.40;99.90;;;;;;5053872;28;20239;-43
2021/06/05 07:30:58;;;;;;;1.70;1.60;;;19.40;99.90;;;;;;5053628;28;20307;-49
2021/06/05 07:33:28;;;;;;;3.30;2.40;;;19.30;99.90;;;;;;5053773;28;20574;-43
2021/06/05 07:35:56;;;;;;;1.70;1.55;;;19.30;99.90;;;;;;5053723;28;20736;-43
2021/06/05 07:38:26;;;;;;;1.73;1.58;;;19.30;99.90;;;;;;5053930;28;20204;-43
2021/06/05 07:40:55;;;;;;;3.08;1.77;;;19.40;99.90;;;;;;5053818;28;20287;-44
2021/06/05 07:43:25;;;;;;;3.92;1.63;;;19.40;99.90;;;;;;5053667;28;20303;-45
2021/06/05 07:45:55;;;;;;;1.73;1.63;;;19.50;99.90;;;;;;5053720;28;20216;-43
2021/06/05 07:48:24;;;;;;;3.13;2.20;;;19.50;99.90;;;;;;5053619;28;20204;-46
2021/06/05 07:50:53;;;;;;;1.38;1.20;;;19.50;99.90;;;;;;5053375;28;20231;-44
2021/06/05 07:53:21;;;;;;;2.75;1.40;;;19.50;99.90;;;;;;5053405;28;20215;-48
2021/06/05 07:55:49;;;;;;;1.35;1.25;;;19.50;99.90;;;;;;5053406;28;20230;-46
2021/06/05 07:58:16;;;;;;;2.83;1.65;;;19.50;99.90;;;;;;5053322;28;20215;-44
2021/06/05 08:00:44;;;;;;;1.25;1.15;;;19.60;99.90;;;;;;5053748;28;20230;-46
2021/06/05 08:03:14;;;;;;;3.72;1.30;;;19.60;99.90;;;;;;5054963;28;20266;-43
2021/06/05 08:05:42;;;;;;;1.88;1.65;;;19.70;99.90;;;;;;5052904;28;20240;-41
2021/06/05 08:08:14;;;;;;;4.03;1.25;;;19.70;99.90;;;;;;5053035;28;20208;-40
2021/06/05 08:10:42;;;;;;;0.90;0.82;;;19.80;99.90;;;;;;5052884;28;20228;-40
2021/06/05 08:13:11;;;;;;;1.35;1.20;;;19.80;99.90;;;;;;5052904;28;20616;-40
2021/06/05 08:15:41;;;;;;;2.20;1.10;;;20.00;99.90;;;;;;5052475;28;20212;-40
2021/06/05 08:18:09;;;;;;;3.13;1.00;;;20.00;99.90;;;;;;5056115;28;20276;-38
2021/06/05 08:20:40;;;;;;;2.05;1.50;;;20.20;99.90;;;;;;5052850;28;20292;-41
2021/06/05 08:23:09;;;;;;;1.77;0.95;;;20.20;99.90;;;;;;5052556;28;20299;-41
2021/06/05 08:25:38;;;;;;;1.63;1.23;;;20.40;99.90;;;;;;5052545;28;20215;-40
2021/06/05 08:28:08;;;;;;;2.78;1.80;;;20.50;99.90;;;;;;5052823;28;20231;-42
2021/06/05 08:30:39;;;;;;;1.73;1.40;;;20.60;99.90;;;;;;5052145;28;20266;-42
2021/06/05 08:33:09;;;;;;;2.28;2.08;;;20.70;99.90;;;;;;5052547;28;20658;-42
2021/06/05 08:35:37;;;;;;;1.42;1.23;;;20.90;99.90;;;;;;5054197;28;20251;-42
2021/06/05 08:38:06;;;;;;;3.90;2.33;;;20.90;99.90;;;;;;5052814;28;20208;-46
2021/06/05 08:41:00;;;;;;;2.08;1.27;;;21.00;99.90;;;;;;5053943;28;20200;-42
2021/06/05 08:43:32;;;;;;;1.42;1.30;;;21.10;99.90;;;;;;5052648;28;20303;-42
2021/06/05 08:46:01;;;;;;;3.17;1.70;;;21.10;99.90;;;;;;5053070;28;20312;-44
2021/06/05 08:48:29;;;;;;;3.22;1.80;;;21.10;99.90;;;;;;5053708;28;20639;-40
2021/06/05 08:51:09;;;;;;;1.77;1.67;;;21.10;99.80;;;;;;5053228;28;20231;-41
2021/06/05 08:53:37;;;;;;;3.00;1.70;;;21.10;99.90;;;;;;5052698;28;20229;-40
2021/06/05 08:56:11;;;;;;;1.50;1.40;;;21.10;99.80;;;;;;5052525;28;20234;-40
2021/06/05 08:58:41;;;;;;;2.55;1.40;;;21.20;99.80;;;;;;5052888;28;20569;-41
2021/06/05 09:01:14;;;;;;;3.00;1.70;;;21.20;99.70;;;;;;5052280;28;20310;-41
2021/06/05 09:03:42;;;;;;;2.15;1.63;;;21.30;99.70;;;;;;5051847;28;20250;-42
2021/06/05 09:06:17;;;;;;;2.75;1.60;;;21.30;99.50;;;;;;5051872;28;20334;-41
2021/06/05 09:08:46;;;;;;;2.38;1.95;;;21.40;99.40;;;;;;5052266;28;20251;-39
2021/06/05 09:11:17;;;;;;;3.60;1.65;;;21.40;99.40;;;;;;5051893;28;20228;-41
2021/06/05 09:13:45;;;;;;;1.23;1.13;;;21.40;99.30;;;;;;5052104;28;20353;-40
2021/06/05 09:16:26;;;;;;;3.75;2.30;;;21.40;99.30;;;;;;5051824;28;20296;-45
2021/06/05 09:19:00;;;;;;;2.05;1.85;;;21.50;98.90;;;;;;5051928;28;20298;-41
2021/06/05 09:21:30;;;;;;;1.83;1.20;;;21.60;98.90;;;;;;5051704;28;20208;-43
2021/06/05 09:24:12;;;;;;;2.35;1.00;;;21.70;98.60;;;;;;5051848;28;20210;-41
2021/06/05 09:26:44;;;;;;;1.10;1.00;;;21.60;98.10;;;;;;5051063;28;20292;-42
2021/06/05 09:29:23;;;;;;;1.45;1.30;;;21.60;98.20;;;;;;5051643;28;20324;-44
2021/06/05 09:31:55;;;;;;;2.95;1.20;;;21.60;98.10;;;;;;5051406;28;20284;-42
2021/06/05 09:34:24;;;;;;;1.88;1.25;;;21.60;98.30;;;;;;5051745;28;20290;-42
2021/06/05 09:36:52;;;;;;;1.10;1.00;;;21.60;98.10;;;;;;5051289;28;20257;-48
2021/06/05 09:39:37;;;;;;;1.23;1.13;;;21.60;98.00;;;;;;5051645;28;20319;-43
2021/06/05 09:42:08;;;;;;;1.30;0.98;;;21.70;97.70;;;;;;5051690;28;20666;-43
2021/06/05 09:44:43;;;;;;;3.78;1.30;;;21.80;97.70;;;;;;5051541;28;20258;-45
2021/06/05 09:47:24;;;;;;;2.95;1.10;;;21.90;97.60;;;;;;5051345;28;20234;-43
2021/06/05 09:49:58;;;;;;;1.95;1.20;;;21.90;97.20;;;;;;5051725;28;20208;-42
2021/06/05 09:52:32;;;;;;;2.17;1.27;;;21.90;97.30;;;;;;5051450;28;20254;-45
2021/06/05 09:55:08;;;;;;;2.65;1.35;;;22.00;97.20;;;;;;5051515;28;20277;-42
2021/06/05 09:57:41;;;;;;;2.00;1.13;;;22.10;96.90;;;;;;5051545;28;20290;-41
2021/06/05 10:00:16;;;;;;;2.58;1.42;;;22.10;96.80;;;;;;5051345;28;20294;-41
2021/06/05 10:02:45;;;;;;;1.75;1.60;;;22.20;96.80;;;;;;5051280;28;20226;-43
2021/06/05 10:05:24;;;;;;;1.65;1.52;;;22.40;96.70;;;;;;5051123;28;20240;-41
2021/06/05 10:07:52;;;;;;;2.55;1.67;;;22.50;96.70;;;;;;5051453;28;20367;-42
2021/06/05 10:10:33;;;;;;;3.55;1.60;;;22.60;96.50;;;;;;5051437;28;20219;-42
2021/06/05 10:13:07;;;;;;;1.98;1.50;;;22.60;96.30;;;;;;5051015;28;20576;-43
2021/06/05 10:15:37;;;;;;;2.03;1.52;;;22.60;96.40;;;;;;5050898;28;20302;-47
2021/06/05 10:18:11;;;;;;;2.50;1.50;;;22.50;96.50;;;;;;5051064;28;20303;-46
2021/06/05 10:20:46;;;;;;;1.67;1.58;;;22.60;96.50;;;;;;5051161;28;20212;-43
2021/06/05 10:23:17;;;;;;;1.95;1.50;;;22.70;96.30;;;;;;5050914;28;20304;-42
2021/06/05 10:25:47;;;;;;;2.05;1.85;;;22.70;96.20;;;;;;5050936;28;20208;-41
2021/06/05 10:28:19;;;;;;;1.63;1.38;;;22.70;96.10;;;;;;5051104;28;20314;-42
2021/06/05 10:30:51;;;;;;;3.20;1.35;;;22.60;96.10;;;;;;5051269;28;20212;-41
2021/06/05 10:33:33;;;;;;;1.83;1.73;;;22.60;96.10;;;;;;5051400;28;20211;-43
2021/06/05 10:36:03;;;;;;;3.38;1.85;;;22.70;96.00;;;;;;5050942;28;20222;-40
2021/06/05 10:38:39;;;;;;;5.72;1.58;;;22.70;96.00;;;;;;5052670;28;20626;-44
2021/06/05 10:41:09;;;;;;;3.00;1.75;;;22.80;95.90;;;;;;5054866;28;20274;-42
2021/06/05 10:43:39;;;;;;;1.75;1.60;;;22.90;95.90;;;;;;5054648;28;20218;-43
2021/06/05 10:46:26;;;;;;;1.50;1.40;;;23.00;95.70;;;;;;5054425;28;20599;-45
2021/06/05 10:49:05;;;;;;;4.93;2.30;;;23.10;95.70;;;;;;5054366;28;20280;-42
2021/06/05 10:51:34;;;;;;;3.45;2.10;;;23.10;95.50;;;;;;5054524;28;20232;-42
2021/06/05 10:54:06;;;;;;;2.50;1.48;;;23.10;95.60;;;;;;5054399;28;20204;-45
2021/06/05 10:56:38;;;;;;;2.17;1.50;;;23.00;95.60;;;;;;5054396;28;20618;-43
2021/06/05 10:59:32;;;;;;;2.00;1.77;;;23.00;95.50;;;;;;5054285;28;20298;-44
2021/06/05 11:01:59;;;;;;;1.88;1.77;;;23.00;95.50;;;;;;5053685;28;20208;-44
2021/06/05 11:04:44;;;;;;;1.63;1.52;;;23.00;95.50;;;;;;5054002;28;20211;-43
2021/06/05 11:07:27;;;;;;;1.80;1.70;;;22.80;95.60;;;;;;5054028;28;20319;-41
2021/06/05 11:09:56;;;;;;;5.53;2.00;;;22.70;96.00;;;;;;5053980;28;20212;-42
2021/06/05 11:12:57;;;;;;;2.75;2.08;;;22.60;96.60;;;;;;5053776;28;20228;-42
2021/06/05 11:15:49;;;;;;;1.70;1.60;;;22.50;96.50;;;;;;5053905;28;20219;-40
2021/06/05 11:18:32;;;;;;;2.55;1.55;;;22.50;96.60;;;;;;5053755;28;20683;-43
2021/06/05 11:21:43;;;;;;;4.20;1.85;;;22.30;96.60;;;;;;5054000;28;20294;-41
2021/06/05 11:24:18;;;;;;;2.70;2.50;;;22.10;97.20;;;;;;5053767;28;20302;-41
2021/06/05 11:26:48;;;;;;;2.20;2.00;;;22.00;97.20;;;;;;5053592;28;20291;-41
2021/06/05 11:29:49;;;;;;;3.08;2.38;;;21.90;97.30;;;;;;5053992;28;20229;-40
2021/06/05 11:32:53;;;;;;;2.53;2.33;;;22.00;97.50;;;;;;5053507;28;20589;-40
2021/06/05 11:35:45;;;;;;;3.10;2.85;;;22.10;97.60;;;;;;5053623;28;20680;-40
2021/06/05 11:38:33;;;;;;;3.22;2.40;;;22.10;97.50;;;;;;5053721;28;20208;-41
2021/06/05 11:41:04;;;;;;;4.60;2.60;;;22.40;97.40;;;;;;5053441;28;20290;-42
2021/06/05 11:44:17;;;;;;;4.05;3.65;;;22.60;97.10;;;;;;5053477;28;20303;-40
2021/06/05 11:46:51;;;;;;;3.30;3.00;;;22.70;97.10;;;;;;5053502;28;20311;-42
2021/06/05 11:49:52;;;;;;;4.60;3.17;;;22.70;97.10;;;;;;5052814;28;20242;-43
2021/06/05 11:52:44;;;;;;;3.78;2.20;;;22.60;97.50;;;;;;5039273;28;20335;-42
2021/06/05 11:55:27;;;;;;;5.25;2.90;;;22.30;97.70;;;;;;5051693;28;20282;-45
2021/06/05 11:58:04;;;;;;;3.22;2.92;;;22.10;97.80;;;;;;5052723;28;20594;-45
2021/06/05 12:00:35;;;;;;;3.45;2.15;;;21.90;98.30;;;;;;5052667;28;20302;-49
2021/06/05 12:03:05;;;;;;;3.30;3.00;;;21.70;98.60;;;;;;5053052;28;20204;-41
2021/06/05 12:05:37;;;;;;;3.40;2.95;;;21.50;99.00;;;;;;5052887;28;20243;-43
2021/06/05 12:08:22;;;;;;;4.10;3.42;;;21.40;99.50;;;;;;5052328;28;20299;-49
2021/06/05 12:10:51;;;;;;;3.67;3.38;;;21.40;99.50;;;;;;5052912;28;20282;-43
2021/06/05 12:13:26;;;;;;;5.97;4.20;;;21.40;99.50;;;;;;5052553;28;20232;-43
2021/06/05 12:15:56;;;;;;;3.95;3.00;;;21.40;99.60;;;;;;5052754;28;20299;-42
2021/06/05 12:18:26;;;;;;;4.72;3.67;;;21.40;99.70;;;;;;5052606;28;20558;-45
2021/06/05 12:20:59;;;;;;;3.72;3.40;;;21.30;99.90;;;;;;5052189;28;20258;-44
2021/06/05 12:23:30;;;;;;;3.90;3.40;;;21.30;99.90;;;;;;5051885;28;20290;-42
2021/06/05 12:26:04;;;;;;;3.33;3.03;;;21.20;99.90;;;;;;5051908;28;20745;-42
2021/06/05 12:28:36;;;;;;;3.78;3.38;;;21.20;99.90;;;;;;5052444;28;20227;-44
2021/06/05 12:31:15;;;;;;;4.10;3.13;;;21.20;99.90;;;;;;5052364;28;20623;-44
2021/06/05 12:33:43;;;;;;;3.70;3.38;;;21.20;99.90;;;;;;5052239;28;20725;-44
2021/06/05 12:36:21;;;;;;;4.18;3.08;;;21.20;99.90;;;;;;5052134;28;20646;-42
2021/06/05 12:38:51;;;;;;;3.47;3.17;;;21.10;99.90;;;;;;5052324;28;20211;-42
2021/06/05 12:41:23;;;;;;;3.15;2.95;;;21.10;99.90;;;;;;5052296;28;20212;-44
2021/06/05 12:43:51;;;;;;;3.63;3.33;;;21.00;99.90;;;;;;5052559;28;20232;-44
2021/06/05 12:46:23;;;;;;;3.78;3.30;;;21.00;99.90;;;;;;5052689;28;20218;-43
2021/06/05 12:48:53;;;;;;;3.88;3.03;;;21.00;99.90;;;;;;5052482;28;20216;-43
2021/06/05 12:51:27;;;;;;;3.72;3.35;;;21.00;99.90;;;;;;5052192;28;20208;-43
2021/06/05 12:54:04;;;;;;;3.67;3.38;;;21.00;99.90;;;;;;5051992;28;20303;-44
2021/06/05 12:56:36;;;;;;;4.10;3.25;;;20.90;99.90;;;;;;5051841;28;20298;-42
2021/06/05 12:59:07;;;;;;;3.67;3.38;;;21.00;99.90;;;;;;5052191;28;20291;-42
2021/06/05 13:01:39;;;;;;;4.25;3.85;;;20.90;99.90;;;;;;5050829;28;20670;-43
2021/06/05 13:04:23;;;;;;;3.92;3.53;;;21.10;99.90;;;;;;5051875;28;20212;-45